createdAt,value
2018-01-23T00:00:31.599Z,5.80
2018-01-23T00:02:59.077Z,5.70
2018-01-23T00:05:27.277Z,5.70
2018-01-23T00:07:54.712Z,5.70
2018-01-23T00:10:22.592Z,5.70
2018-01-23T00:12:50.148Z,5.70
2018-01-23T00:15:17.586Z,5.70
2018-01-23T00:17:45.575Z,5.70
2018-01-23T00:20:13.013Z,5.70
2018-01-23T00:22:40.447Z,5.70
2018-01-23T00:25:07.923Z,5.70
2018-01-23T00:27:35.358Z,5.70
2018-01-23T00:30:03.551Z,5.80
2018-01-23T00:32:31.368Z,5.80
2018-01-23T00:34:58.808Z,5.80
2018-01-23T00:37:26.232Z,5.80
2018-01-23T00:39:54.015Z,5.80
2018-01-23T00:42:27.864Z,5.70
2018-01-23T00:44:55.301Z,5.70
2018-01-23T00:47:22.819Z,5.70
2018-01-23T00:49:50.275Z,5.70
2018-01-23T00:52:17.738Z,5.70
2018-01-23T00:54:45.172Z,5.70
2018-01-23T00:57:13.522Z,5.80
2018-01-23T00:59:41.892Z,5.80
2018-01-23T01:02:09.351Z,5.80
2018-01-23T01:04:36.779Z,5.70
2018-01-23T01:07:04.232Z,5.70
2018-01-23T01:09:31.667Z,5.70
2018-01-23T01:11:59.392Z,5.70
2018-01-23T01:14:26.824Z,5.70
2018-01-23T01:16:54.258Z,5.70
2018-01-23T01:19:21.775Z,5.70
2018-01-23T01:21:49.207Z,5.70
2018-01-23T01:24:16.663Z,5.80
2018-01-23T01:26:44.124Z,5.70
2018-01-23T01:29:11.556Z,5.70
2018-01-23T01:31:39.432Z,5.70
2018-01-23T01:34:07.623Z,5.70
2018-01-23T01:36:35.056Z,5.70
2018-01-23T01:39:02.508Z,5.70
2018-01-23T01:41:30.008Z,5.70
2018-01-23T01:43:57.751Z,5.70
2018-01-23T01:46:25.187Z,5.70
2018-01-23T01:48:52.626Z,5.70
2018-01-23T01:51:20.183Z,5.70
2018-01-23T01:53:47.608Z,5.70
2018-01-23T01:56:26.008Z,5.70
2018-01-23T01:58:53.448Z,5.70
2018-01-23T02:01:20.889Z,5.70
2018-01-23T02:03:48.352Z,5.80
2018-01-23T02:06:15.808Z,5.80
2018-01-23T02:08:43.241Z,5.80
2018-01-23T02:11:10.769Z,5.70
2018-01-23T02:13:38.200Z,5.70
2018-01-23T02:16:05.684Z,5.70
2018-01-23T02:18:33.118Z,5.70
2018-01-23T02:21:00.548Z,5.70
2018-01-23T02:23:28.007Z,5.70
2018-01-23T02:25:55.900Z,5.70
2018-01-23T02:28:27.153Z,5.80
2018-01-23T02:30:54.579Z,5.70
2018-01-23T02:33:22.361Z,5.70
2018-01-23T02:35:49.800Z,5.70
2018-01-23T02:38:17.236Z,5.70
2018-01-23T02:40:44.700Z,5.70
2018-01-23T02:43:12.136Z,5.70
2018-01-23T02:45:41.449Z,5.70
2018-01-23T02:48:14.546Z,5.70
2018-01-23T02:50:41.980Z,5.70
2018-01-23T02:53:10.488Z,5.70
2018-01-23T02:55:37.920Z,5.70
2018-01-23T02:58:06.132Z,5.70
2018-01-23T03:00:33.611Z,5.70
2018-01-23T03:03:01.048Z,5.80
2018-01-23T03:05:28.508Z,5.70
2018-01-23T03:07:56.703Z,5.70
2018-01-23T03:10:24.172Z,5.70
2018-01-23T03:12:51.612Z,5.70
2018-01-23T03:15:19.184Z,5.70
2018-01-23T03:17:46.620Z,5.70
2018-01-23T03:20:14.084Z,5.70
2018-01-23T03:22:42.479Z,5.70
2018-01-23T03:25:09.945Z,5.70
2018-01-23T03:27:37.375Z,5.70
2018-01-23T03:30:04.835Z,5.70
2018-01-23T03:32:32.267Z,5.70
2018-01-23T03:35:00.009Z,5.70
2018-01-23T03:37:28.202Z,5.70
2018-01-23T03:39:55.661Z,5.70
2018-01-23T03:42:23.092Z,5.70
2018-01-23T03:44:55.164Z,5.70
2018-01-23T03:47:23.392Z,5.70
2018-01-23T03:49:50.895Z,5.70
2018-01-23T03:52:19.183Z,5.70
2018-01-23T03:54:46.615Z,5.70
2018-01-23T03:57:14.076Z,5.70
2018-01-23T03:59:42.444Z,5.70
2018-01-23T04:02:14.897Z,5.70
2018-01-23T04:04:42.357Z,5.70
2018-01-23T04:07:09.817Z,5.70
2018-01-23T04:09:37.256Z,5.70
2018-01-23T04:12:05.038Z,5.70
2018-01-23T04:14:32.473Z,5.70
2018-01-23T04:16:59.909Z,5.70
2018-01-23T04:19:28.399Z,5.70
2018-01-23T04:21:55.832Z,5.70
2018-01-23T04:24:24.234Z,5.70
2018-01-23T04:26:52.411Z,5.70
2018-01-23T04:29:19.843Z,5.70
2018-01-23T04:31:48.072Z,5.70
2018-01-23T04:34:15.576Z,5.60
2018-01-23T04:36:43.803Z,5.70
2018-01-23T04:39:12.224Z,5.60
2018-01-23T04:41:40.420Z,5.70
2018-01-23T04:44:07.945Z,5.60
2018-01-23T04:46:35.384Z,5.70
2018-01-23T04:49:03.428Z,5.70
2018-01-23T04:51:30.860Z,5.70
2018-01-23T04:53:59.086Z,5.70
2018-01-23T04:56:26.520Z,5.70
2018-01-23T04:58:53.989Z,5.70
2018-01-23T05:01:21.420Z,5.70
2018-01-23T05:03:48.852Z,5.70
2018-01-23T05:06:17.169Z,5.60
2018-01-23T05:08:44.599Z,5.60
2018-01-23T05:11:12.065Z,5.60
2018-01-23T05:13:39.524Z,5.60
2018-01-23T05:16:06.956Z,5.60
2018-01-23T05:18:35.175Z,5.60
2018-01-23T05:21:02.665Z,5.60
2018-01-23T05:23:30.100Z,5.60
2018-01-23T05:25:57.529Z,5.60
2018-01-23T05:28:25.037Z,5.60
2018-01-23T05:30:58.310Z,5.60
2018-01-23T05:33:26.460Z,5.60
2018-01-23T05:35:53.894Z,5.60
2018-01-23T05:38:22.524Z,5.50
2018-01-23T05:40:49.956Z,5.50
2018-01-23T05:43:17.396Z,5.50
2018-01-23T05:45:45.775Z,5.50
2018-01-23T05:48:17.771Z,5.50
2018-01-23T05:50:47.203Z,5.50
2018-01-23T05:53:14.644Z,5.50
2018-01-23T05:55:42.099Z,5.50
2018-01-23T05:58:09.628Z,5.50
2018-01-23T06:00:37.055Z,5.50
2018-01-23T06:03:05.432Z,5.50
2018-01-23T06:05:32.951Z,5.50
2018-01-23T06:08:00.384Z,5.50
2018-01-23T06:10:27.849Z,5.50
2018-01-23T06:12:55.284Z,5.50
2018-01-23T06:15:23.541Z,5.50
2018-01-23T06:17:50.967Z,5.40
2018-01-23T06:20:18.408Z,5.50
2018-01-23T06:22:46.067Z,5.40
2018-01-23T06:25:13.512Z,5.40
2018-01-23T06:27:40.967Z,5.50
2018-01-23T06:30:08.396Z,5.50
2018-01-23T06:32:40.459Z,5.50
2018-01-23T06:35:08.670Z,5.40
2018-01-23T06:37:36.132Z,5.40
2018-01-23T06:40:03.572Z,5.40
2018-01-23T06:42:31.222Z,5.40
2018-01-23T06:44:59.415Z,5.40
2018-01-23T06:47:26.879Z,5.40
2018-01-23T06:49:54.344Z,5.40
2018-01-23T06:52:22.791Z,5.40
2018-01-23T06:54:51.010Z,5.40
2018-01-23T06:57:18.469Z,5.40
2018-01-23T06:59:45.899Z,5.40
2018-01-23T07:02:13.492Z,5.40
2018-01-23T07:04:41.892Z,5.40
2018-01-23T07:07:09.463Z,5.40
2018-01-23T07:09:37.192Z,5.40
2018-01-23T07:12:04.622Z,5.40
2018-01-23T07:14:32.075Z,5.40
2018-01-23T07:16:59.871Z,5.40
2018-01-23T07:19:27.300Z,5.40
2018-01-23T07:21:54.735Z,5.40
2018-01-23T07:24:23.259Z,5.40
2018-01-23T07:26:50.672Z,5.40
2018-01-23T07:29:18.899Z,5.40
2018-01-23T07:31:46.328Z,5.40
2018-01-23T07:34:14.127Z,5.40
2018-01-23T07:36:41.555Z,5.40
2018-01-23T07:39:09.755Z,5.40
2018-01-23T07:41:37.402Z,5.40
2018-01-23T07:44:04.836Z,5.40
2018-01-23T07:46:36.181Z,5.40
2018-01-23T07:49:03.612Z,5.40
2018-01-23T07:51:31.044Z,5.40
2018-01-23T07:53:58.620Z,5.40
2018-01-23T07:56:26.092Z,5.40
2018-01-23T07:58:53.529Z,5.40
2018-01-23T08:01:20.972Z,5.40
2018-01-23T08:03:53.245Z,5.40
2018-01-23T08:06:20.998Z,5.40
2018-01-23T08:08:53.197Z,5.40
2018-01-23T08:11:20.634Z,5.40
2018-01-23T08:13:48.140Z,5.40
2018-01-23T08:16:16.367Z,5.40
2018-01-23T08:18:43.838Z,5.40
2018-01-23T08:21:11.273Z,5.40
2018-01-23T08:23:38.731Z,5.40
2018-01-23T08:26:06.195Z,5.40
2018-01-23T08:28:33.632Z,5.40
2018-01-23T08:31:01.245Z,5.40
2018-01-23T08:33:28.699Z,5.40
2018-01-23T08:35:56.199Z,5.40
2018-01-23T08:38:23.632Z,5.40
2018-01-23T08:40:52.047Z,5.40
2018-01-23T08:43:41.340Z,5.40
2018-01-23T08:46:10.332Z,5.50
2018-01-23T08:48:38.032Z,5.50
2018-01-23T08:51:09.864Z,5.50
2018-01-23T08:53:37.333Z,5.50
2018-01-23T08:56:04.772Z,5.50
2018-01-23T08:58:32.235Z,5.50
2018-01-23T09:00:59.699Z,5.50
2018-01-23T09:03:27.162Z,5.50
2018-01-23T09:05:54.680Z,5.50
2018-01-23T09:08:22.111Z,5.60
2018-01-23T09:10:49.572Z,5.60
2018-01-23T09:13:17.028Z,5.60
2018-01-23T09:15:44.495Z,5.60
2018-01-23T09:18:11.956Z,5.60
2018-01-23T09:20:39.390Z,5.60
2018-01-23T09:23:09.255Z,5.70
2018-01-23T09:25:36.688Z,5.60
2018-01-23T09:28:04.129Z,5.70
2018-01-23T09:30:31.584Z,5.70
2018-01-23T09:32:59.052Z,5.70
2018-01-23T09:35:28.028Z,5.70
2018-01-23T09:37:55.427Z,5.80
2018-01-23T09:40:22.871Z,5.80
2018-01-23T09:42:50.711Z,5.90
2018-01-23T09:45:18.148Z,5.90
2018-01-23T09:47:45.592Z,5.90
2018-01-23T09:50:13.124Z,6.00
2018-01-23T09:52:40.563Z,6.00
2018-01-23T09:55:11.634Z,6.00
2018-01-23T09:57:39.072Z,6.10
2018-01-23T10:00:06.548Z,6.10
2018-01-23T10:02:33.987Z,6.10
2018-01-23T10:05:01.552Z,6.10
2018-01-23T10:07:28.992Z,6.10
2018-01-23T10:09:56.788Z,6.10
2018-01-23T10:12:24.227Z,6.10
2018-01-23T10:14:51.664Z,6.10
2018-01-23T10:17:22.171Z,6.10
2018-01-23T10:19:50.416Z,6.10
2018-01-23T10:22:17.851Z,6.10
2018-01-23T10:24:45.525Z,6.10
2018-01-23T10:27:12.966Z,6.10
2018-01-23T10:29:40.428Z,6.10
2018-01-23T10:32:07.903Z,6.10
2018-01-23T10:34:35.335Z,6.10
2018-01-23T10:37:02.795Z,6.20
2018-01-23T10:39:35.696Z,6.20
2018-01-23T10:42:03.140Z,6.20
2018-01-23T10:44:30.576Z,6.20
2018-01-23T10:46:58.171Z,6.20
2018-01-23T10:49:25.656Z,6.20
2018-01-23T10:51:53.099Z,6.20
2018-01-23T10:54:20.559Z,6.20
2018-01-23T10:56:48.004Z,6.30
2018-01-23T10:59:31.784Z,6.30
2018-01-23T11:01:59.988Z,6.40
2018-01-23T11:04:27.423Z,6.40
2018-01-23T11:06:55.659Z,6.50
2018-01-23T11:09:23.123Z,6.50
2018-01-23T11:11:50.563Z,6.60
2018-01-23T11:14:18.184Z,6.60
2018-01-23T11:16:45.658Z,6.60
2018-01-23T11:19:17.183Z,6.60
2018-01-23T11:21:45.395Z,6.70
2018-01-23T11:24:12.852Z,6.60
2018-01-23T11:26:40.312Z,6.70
2018-01-23T11:29:07.751Z,6.70
2018-01-23T11:31:35.286Z,6.70
2018-01-23T11:34:03.512Z,6.70
2018-01-23T11:36:31.018Z,6.70
2018-01-23T11:38:59.251Z,6.80
2018-01-23T11:41:26.714Z,6.80
2018-01-23T11:43:54.171Z,6.80
2018-01-23T11:46:21.708Z,6.80
2018-01-23T11:48:49.156Z,6.80
2018-01-23T11:51:16.883Z,6.80
2018-01-23T11:53:44.339Z,6.80
2018-01-23T11:56:11.771Z,6.90
2018-01-23T11:58:39.522Z,6.90
2018-01-23T12:01:06.956Z,6.90
2018-01-23T12:03:34.448Z,6.90
2018-01-23T12:06:02.000Z,6.90
2018-01-23T12:08:30.403Z,6.90
2018-01-23T12:10:58.025Z,6.90
2018-01-23T12:13:25.461Z,7.00
2018-01-23T12:15:52.895Z,7.00
2018-01-23T12:18:21.151Z,7.00
2018-01-23T12:20:49.016Z,7.00
2018-01-23T12:23:16.460Z,7.10
2018-01-23T12:25:44.087Z,7.10
2018-01-23T12:28:11.766Z,7.10
2018-01-23T12:30:39.202Z,7.20
2018-01-23T12:33:06.639Z,7.20
2018-01-23T12:35:34.968Z,7.20
2018-01-23T12:38:03.148Z,7.30
2018-01-23T12:40:30.575Z,7.30
2018-01-23T12:42:58.341Z,7.30
2018-01-23T12:45:25.777Z,7.30
2018-01-23T12:47:53.972Z,7.30
2018-01-23T12:50:21.495Z,7.30
2018-01-23T12:52:48.919Z,7.40
2018-01-23T12:55:16.389Z,7.30
2018-01-23T12:57:43.820Z,7.40
2018-01-23T13:00:11.296Z,7.40
2018-01-23T13:02:38.740Z,7.40
2018-01-23T13:05:06.332Z,7.40
2018-01-23T13:07:33.769Z,7.40
2018-01-23T13:10:04.836Z,7.40
2018-01-23T13:12:32.280Z,7.40
2018-01-23T13:14:59.731Z,7.40
2018-01-23T13:17:27.171Z,7.40
2018-01-23T13:19:54.623Z,7.40
2018-01-23T13:22:22.306Z,7.40
2018-01-23T13:24:49.748Z,7.50
2018-01-23T13:27:17.207Z,7.50
2018-01-23T13:29:44.640Z,7.50
2018-01-23T13:32:12.124Z,7.60
2018-01-23T13:34:39.568Z,7.60
2018-01-23T13:37:07.010Z,7.60
2018-01-23T13:39:34.911Z,7.60
2018-01-23T13:42:04.640Z,7.70
2018-01-23T13:44:32.076Z,7.70
2018-01-23T13:46:59.534Z,7.70
2018-01-23T13:49:27.328Z,7.70
2018-01-23T13:51:54.759Z,7.70
2018-01-23T13:54:24.784Z,7.80
2018-01-23T13:56:52.215Z,7.80
2018-01-23T13:59:19.647Z,7.80
2018-01-23T14:01:47.255Z,7.80
2018-01-23T14:04:14.720Z,7.90
2018-01-23T14:06:47.096Z,7.90
2018-01-23T14:09:14.569Z,7.90
2018-01-23T14:11:41.999Z,7.90
2018-01-23T14:14:09.457Z,7.90
2018-01-23T14:16:36.928Z,7.90
2018-01-23T14:19:04.374Z,8.00
2018-01-23T14:21:31.952Z,8.00
2018-01-23T14:23:59.411Z,7.90
2018-01-23T14:26:26.872Z,7.90
2018-01-23T14:28:54.310Z,7.90
2018-01-23T14:31:24.868Z,7.90
2018-01-23T14:33:52.292Z,7.80
2018-01-23T14:36:19.732Z,7.80
2018-01-23T14:38:47.355Z,7.80
2018-01-23T14:41:15.548Z,7.80
2018-01-23T14:43:42.974Z,7.70
2018-01-23T14:46:10.485Z,7.80
2018-01-23T14:48:37.915Z,7.80
2018-01-23T14:51:12.391Z,7.80
2018-01-23T14:53:39.824Z,7.80
2018-01-23T14:56:07.320Z,7.80
2018-01-23T14:58:34.760Z,7.80
2018-01-23T15:01:02.219Z,7.80
2018-01-23T15:03:29.648Z,7.80
2018-01-23T15:05:57.111Z,7.80
2018-01-23T15:08:24.561Z,7.80
2018-01-23T15:11:04.203Z,7.80
2018-01-23T15:13:31.651Z,7.70
2018-01-23T15:15:59.077Z,7.70
2018-01-23T15:18:27.367Z,7.70
2018-01-23T15:20:55.591Z,7.60
2018-01-23T15:23:23.032Z,7.60
2018-01-23T15:25:50.535Z,7.60
2018-01-23T15:28:17.977Z,7.60
2018-01-23T15:30:45.409Z,7.60
2018-01-23T15:33:17.996Z,7.50
2018-01-23T15:35:45.424Z,7.50
2018-01-23T15:38:12.858Z,7.50
2018-01-23T15:40:41.156Z,7.50
2018-01-23T15:43:13.771Z,7.50
2018-01-23T15:45:41.196Z,7.50
2018-01-23T15:48:08.767Z,7.50
2018-01-23T15:50:36.232Z,7.50
2018-01-23T15:53:03.688Z,7.40
2018-01-23T15:55:31.282Z,7.40
2018-01-23T15:57:58.716Z,7.40
2018-01-23T16:00:26.184Z,7.40
2018-01-23T16:02:53.621Z,7.40
2018-01-23T16:05:25.903Z,7.40
2018-01-23T16:07:53.362Z,7.30
2018-01-23T16:10:20.828Z,7.30
2018-01-23T16:12:48.272Z,7.30
2018-01-23T16:15:15.703Z,7.30
2018-01-23T16:17:43.225Z,7.30
2018-01-23T16:20:10.668Z,7.30
2018-01-23T16:22:38.147Z,7.30
2018-01-23T16:25:06.356Z,7.30
2018-01-23T16:27:33.783Z,7.30
2018-01-23T16:30:02.165Z,7.20
2018-01-23T16:32:29.577Z,7.20
2018-01-23T16:34:57.011Z,7.20
2018-01-23T16:37:24.469Z,7.20
2018-01-23T16:39:52.365Z,7.20
2018-01-23T16:42:19.800Z,7.30
2018-01-23T16:44:47.239Z,7.20
2018-01-23T16:47:14.801Z,7.30
2018-01-23T16:49:42.260Z,7.30
2018-01-23T16:52:09.698Z,7.20
2018-01-23T16:54:38.257Z,7.20
2018-01-23T16:57:05.664Z,7.20
2018-01-23T16:59:33.092Z,7.20
2018-01-23T17:02:03.569Z,7.20
2018-01-23T17:04:30.991Z,7.20
2018-01-23T17:06:58.425Z,7.20
2018-01-23T17:09:26.720Z,7.20
2018-01-23T17:11:54.927Z,7.20
2018-01-23T17:14:23.123Z,7.20
2018-01-23T17:16:50.547Z,7.10
2018-01-23T17:19:19.376Z,7.20
2018-01-23T17:21:46.811Z,7.20
2018-01-23T17:24:15.204Z,7.20
2018-01-23T17:26:43.040Z,7.20
2018-01-23T17:29:10.472Z,7.20
2018-01-23T17:31:37.907Z,7.20
2018-01-23T17:34:05.349Z,7.20
2018-01-23T17:36:40.461Z,7.20
2018-01-23T17:39:07.928Z,7.20
2018-01-23T17:41:40.182Z,7.20
2018-01-23T17:44:07.764Z,7.20
2018-01-23T17:46:35.223Z,7.20
2018-01-23T17:49:02.727Z,7.20
2018-01-23T17:51:30.215Z,7.20
2018-01-23T17:53:57.675Z,7.20
2018-01-23T17:56:25.145Z,7.20
2018-01-23T17:58:52.607Z,7.10
2018-01-23T18:01:20.114Z,7.10
2018-01-23T18:03:47.611Z,7.10
2018-01-23T18:06:15.064Z,7.10
2018-01-23T18:08:42.497Z,7.10
2018-01-23T18:11:09.966Z,7.10
2018-01-23T18:13:44.228Z,7.10
2018-01-23T18:16:11.683Z,7.10
2018-01-23T18:18:39.115Z,7.10
2018-01-23T18:21:08.687Z,7.10
2018-01-23T18:23:36.876Z,7.10
2018-01-23T18:26:04.312Z,7.10
2018-01-23T18:28:32.552Z,7.10
2018-01-23T18:31:00.928Z,7.10
2018-01-23T18:33:28.393Z,7.10
2018-01-23T18:35:55.828Z,7.10
2018-01-23T18:38:23.460Z,7.10
2018-01-23T18:40:50.903Z,7.10
2018-01-23T18:43:19.096Z,7.10
2018-01-23T18:45:50.155Z,7.00
2018-01-23T18:48:17.812Z,7.00
2018-01-23T18:50:45.240Z,7.00
2018-01-23T18:53:13.899Z,7.00
2018-01-23T18:55:41.329Z,7.00
2018-01-23T18:58:08.751Z,7.00
2018-01-23T19:00:36.280Z,7.00
2018-01-23T19:03:03.712Z,7.00
2018-01-23T19:05:31.192Z,7.00
2018-01-23T19:07:58.629Z,7.00
2018-01-23T19:10:29.079Z,6.90
2018-01-23T19:12:56.535Z,7.00
2018-01-23T19:15:23.987Z,6.90
2018-01-23T19:17:51.433Z,7.00
2018-01-23T19:20:19.239Z,6.90
2018-01-23T19:22:47.440Z,7.00
2018-01-23T19:25:14.870Z,6.90
2018-01-23T19:27:42.428Z,7.00
2018-01-23T19:30:10.276Z,7.00
2018-01-23T19:32:38.487Z,7.00
2018-01-23T19:35:05.924Z,7.00
2018-01-23T19:37:34.152Z,7.00
2018-01-23T19:40:01.597Z,7.00
2018-01-23T19:42:30.219Z,7.00
2018-01-23T19:44:57.660Z,7.00
2018-01-23T19:47:25.259Z,7.00
2018-01-23T19:49:54.708Z,7.00
2018-01-23T19:52:22.152Z,7.00
2018-01-23T19:54:50.369Z,7.00
2018-01-23T19:57:17.831Z,7.00
2018-01-23T19:59:45.274Z,7.00
2018-01-23T20:02:13.471Z,7.00
2018-01-23T20:04:40.936Z,7.00
2018-01-23T20:07:09.289Z,7.00
2018-01-23T20:09:36.664Z,6.90
2018-01-23T20:12:04.906Z,7.00
2018-01-23T20:14:32.333Z,7.00
2018-01-23T20:16:59.952Z,7.00
2018-01-23T20:19:27.394Z,7.00
2018-01-23T20:21:54.827Z,7.00
2018-01-23T20:24:22.384Z,7.00
2018-01-23T20:26:49.833Z,7.00
2018-01-23T20:29:17.268Z,7.00
2018-01-23T20:31:52.943Z,7.00
2018-01-23T20:34:20.375Z,7.00
2018-01-23T20:36:47.904Z,7.00
2018-01-23T20:39:15.368Z,7.00
2018-01-23T20:41:52.519Z,7.00
2018-01-23T20:44:20.092Z,7.00
2018-01-23T20:46:47.533Z,7.00
2018-01-23T20:49:15.164Z,7.00
2018-01-23T20:51:50.328Z,7.00
2018-01-23T20:54:17.803Z,7.00
2018-01-23T20:56:45.235Z,7.00
2018-01-23T20:59:13.116Z,7.00
2018-01-23T21:01:40.553Z,7.00
2018-01-23T21:04:07.985Z,7.00
2018-01-23T21:06:37.228Z,7.00
2018-01-23T21:09:04.995Z,7.00
2018-01-23T21:11:32.463Z,7.00
2018-01-23T21:13:59.848Z,7.10
2018-01-23T21:16:28.072Z,7.10
2018-01-23T21:18:55.508Z,7.00
2018-01-23T21:21:22.973Z,7.10
2018-01-23T21:23:50.400Z,7.10
2018-01-23T21:26:18.013Z,7.10
2018-01-23T21:28:45.468Z,7.10
2018-01-23T21:31:12.905Z,7.10
2018-01-23T21:33:42.437Z,7.10
2018-01-23T21:36:09.900Z,7.10
2018-01-23T21:38:38.317Z,7.10
2018-01-23T21:41:06.531Z,7.10
2018-01-23T21:43:33.951Z,7.10
2018-01-23T21:46:02.292Z,7.10
2018-01-23T21:48:41.713Z,7.10
2018-01-23T21:51:09.320Z,7.10
2018-01-23T21:53:36.779Z,7.10
2018-01-23T21:56:04.980Z,7.20
2018-01-23T21:58:32.701Z,7.10
2018-01-23T22:01:00.116Z,7.20
2018-01-23T22:03:28.632Z,7.20
2018-01-23T22:05:56.055Z,7.20
2018-01-23T22:08:23.524Z,7.20
2018-01-23T22:10:50.975Z,7.20
2018-01-23T22:13:18.425Z,7.20
2018-01-23T22:15:48.787Z,7.20
2018-01-23T22:18:16.583Z,7.20
2018-01-23T22:20:44.784Z,7.30
2018-01-23T22:23:13.216Z,7.20
2018-01-23T22:25:40.771Z,7.30
2018-01-23T22:28:08.214Z,7.30
2018-01-23T22:30:35.669Z,7.30
2018-01-23T22:33:03.152Z,7.30
2018-01-23T22:35:30.580Z,7.30
2018-01-23T22:37:58.013Z,7.30
2018-01-23T22:40:25.472Z,7.30
2018-01-23T22:42:52.906Z,7.30
2018-01-23T22:45:21.216Z,7.40
2018-01-23T22:47:48.660Z,7.40
2018-01-23T22:50:16.093Z,7.40
2018-01-23T22:52:44.308Z,7.40
2018-01-23T22:55:11.763Z,7.40
2018-01-23T22:57:40.168Z,7.40
2018-01-23T23:00:07.637Z,7.40
2018-01-23T23:02:35.227Z,7.40
2018-01-23T23:05:03.428Z,7.40
2018-01-23T23:07:30.903Z,7.40
2018-01-23T23:09:58.342Z,7.50
2018-01-23T23:12:25.796Z,7.50
2018-01-23T23:14:53.219Z,7.50
2018-01-23T23:17:21.475Z,7.50
2018-01-23T23:19:58.012Z,7.50
2018-01-23T23:22:25.501Z,7.50
2018-01-23T23:24:52.936Z,7.50
2018-01-23T23:27:20.413Z,7.50
2018-01-23T23:29:47.860Z,7.50
2018-01-23T23:32:15.294Z,7.50
2018-01-23T23:34:43.684Z,7.60
2018-01-23T23:37:11.120Z,7.60
2018-01-23T23:39:38.557Z,7.60
2018-01-23T23:42:06.772Z,7.60
2018-01-23T23:44:34.284Z,7.60
2018-01-23T23:47:02.541Z,7.60
2018-01-23T23:49:29.971Z,7.60
2018-01-23T23:51:58.517Z,7.60
2018-01-23T23:54:25.963Z,7.60
2018-01-23T23:56:54.172Z,7.60
2018-01-23T23:59:21.629Z,7.60
